Time;durP1;ratioP1;P1;durP2;ratioP2;P2;SDS_P1;SDS_P2;PMS_P1;PMS_P2;Temp;Humidity;BMP_temperature;BMP_pressure;BME280_temperature;BME280_humidity;BME280_pressure;Samples;Min_cycle;Max_cycle;Signal;HPM_P1;HPM_P2
2022/04/02 00:00:52;;;;;;;31.97;18.27;;;1.70;99.90;;;;;;5235883;28;20053;-82
2022/04/02 00:03:24;;;;;;;42.10;20.17;;;1.70;99.90;;;;;;5218538;28;20064;-82
2022/04/02 00:05:57;;;;;;;40.53;21.05;;;1.70;99.90;;;;;;5212256;28;20044;-81
2022/04/02 00:08:29;;;;;;;40.33;20.50;;;1.70;99.90;;;;;;5228549;28;20068;-82
2022/04/02 00:11:02;;;;;;;36.00;19.70;;;1.70;99.90;;;;;;5232802;28;20044;-80
2022/04/02 00:13:35;;;;;;;34.03;18.85;;;1.70;99.90;;;;;;5211254;28;20049;-81
2022/04/02 00:16:07;;;;;;;39.05;19.35;;;1.70;99.90;;;;;;5202282;28;20049;-81
2022/04/02 00:18:42;;;;;;;34.85;18.52;;;1.70;99.90;;;;;;5235529;28;20045;-82
2022/04/02 00:21:15;;;;;;;33.42;19.08;;;1.70;99.90;;;;;;5237544;28;20074;-82
2022/04/02 00:23:47;;;;;;;36.50;18.80;;;1.60;99.90;;;;;;5233524;28;20056;-81
2022/04/02 00:26:20;;;;;;;36.15;18.67;;;1.60;99.90;;;;;;5218335;28;20063;-82
2022/04/02 00:28:54;;;;;;;38.58;19.52;;;1.60;99.90;;;;;;5217782;28;20057;-82
2022/04/02 00:31:29;;;;;;;45.63;20.92;;;1.60;99.90;;;;;;5222224;28;20083;-82
2022/04/02 00:34:02;;;;;;;42.80;21.13;;;1.60;99.90;;;;;;5195847;28;20037;-81
2022/04/02 00:36:37;;;;;;;38.35;19.08;;;1.60;99.90;;;;;;5220938;28;20433;-81
2022/04/02 00:39:10;;;;;;;38.70;20.85;;;1.50;99.90;;;;;;5231990;28;20341;-82
2022/04/02 00:41:43;;;;;;;38.10;19.83;;;1.50;99.90;;;;;;5218080;28;20051;-81
2022/04/02 00:44:21;;;;;;;37.05;19.38;;;1.50;99.90;;;;;;5214893;28;20720;-82
2022/04/02 00:46:54;;;;;;;39.97;20.60;;;1.50;99.90;;;;;;5203571;28;20092;-82
2022/04/02 00:49:28;;;;;;;38.00;19.30;;;1.50;99.90;;;;;;5211123;28;20045;-83
2022/04/02 00:52:00;;;;;;;48.65;21.80;;;1.50;99.90;;;;;;5221578;28;20358;-82
2022/04/02 00:54:33;;;;;;;39.13;19.63;;;1.50;99.90;;;;;;5228811;28;20044;-82
2022/04/02 00:57:06;;;;;;;43.63;19.98;;;1.60;99.90;;;;;;5220837;28;20056;-82
2022/04/02 00:59:39;;;;;;;36.33;19.53;;;1.60;99.90;;;;;;5209756;28;20037;-82
2022/04/02 01:02:12;;;;;;;47.17;22.40;;;1.60;99.90;;;;;;5220689;28;20322;-82
2022/04/02 01:04:46;;;;;;;37.05;19.55;;;1.60;99.90;;;;;;5195208;28;20051;-82
2022/04/02 01:07:21;;;;;;;45.22;21.25;;;1.60;99.90;;;;;;5229187;28;20041;-81
2022/04/02 01:09:53;;;;;;;45.20;22.55;;;1.50;99.90;;;;;;5232072;28;20054;-81
2022/04/02 01:12:26;;;;;;;39.63;20.90;;;1.60;99.90;;;;;;5221296;28;21885;-82
2022/04/02 01:15:00;;;;;;;40.72;21.25;;;1.60;99.90;;;;;;5234485;28;20294;-82
2022/04/02 01:17:41;;;;;;;46.50;21.50;;;1.50;99.90;;;;;;5216091;28;20049;-81
2022/04/02 01:20:26;;;;;;;40.88;20.15;;;1.50;99.90;;;;;;5217655;28;20044;-81
2022/04/02 01:23:01;;;;;;;43.95;21.60;;;1.60;99.90;;;;;;5216992;28;20400;-81
2022/04/02 01:25:39;;;;;;;58.05;23.75;;;1.60;99.90;;;;;;5220082;28;20057;-82
2022/04/02 01:28:20;;;;;;;39.17;20.48;;;1.60;99.90;;;;;;5220989;28;20048;-82
2022/04/02 01:30:57;;;;;;;40.92;20.70;;;1.60;99.90;;;;;;5183543;28;20052;-82
2022/04/02 01:33:29;;;;;;;43.75;21.50;;;1.50;99.90;;;;;;5216235;28;20052;-82
2022/04/02 01:36:04;;;;;;;40.70;20.07;;;1.50;99.90;;;;;;5203603;28;20730;-82
2022/04/02 01:38:49;;;;;;;43.42;21.10;;;1.60;99.90;;;;;;5210366;28;20045;-82
2022/04/02 01:41:23;;;;;;;44.33;21.45;;;1.50;99.90;;;;;;5190745;28;20053;-81
2022/04/02 01:43:56;;;;;;;41.20;20.55;;;1.50;99.90;;;;;;5236333;28;20036;-82
2022/04/02 01:46:28;;;;;;;45.17;21.67;;;1.60;99.90;;;;;;5202634;28;20044;-82
2022/04/02 01:49:01;;;;;;;47.03;22.48;;;1.50;99.90;;;;;;5206677;28;20051;-81
2022/04/02 01:51:34;;;;;;;43.45;21.90;;;1.50;99.90;;;;;;5208667;28;20056;-82
2022/04/02 01:54:10;;;;;;;41.08;20.80;;;1.60;99.90;;;;;;5210088;28;20052;-81
2022/04/02 01:56:42;;;;;;;44.45;21.33;;;1.50;99.90;;;;;;5232973;28;20044;-81
2022/04/02 01:59:15;;;;;;;47.67;22.02;;;1.50;99.90;;;;;;5202729;28;20059;-81
2022/04/02 02:01:48;;;;;;;50.45;22.92;;;1.50;99.90;;;;;;5209200;28;20052;-81
2022/04/02 02:04:23;;;;;;;42.17;21.00;;;1.50;99.90;;;;;;5213442;28;20055;-81
2022/04/02 02:06:56;;;;;;;40.03;20.73;;;1.50;99.90;;;;;;5214230;28;20511;-81
2022/04/02 02:09:29;;;;;;;41.47;20.88;;;1.50;99.90;;;;;;5212518;28;20068;-81
2022/04/02 02:12:20;;;;;;;40.65;19.88;;;1.50;99.90;;;;;;5224347;28;20040;-82
2022/04/02 02:15:16;;;;;;;36.72;19.98;;;1.50;99.90;;;;;;5226036;28;20079;-81
2022/04/02 02:17:58;;;;;;;39.53;20.40;;;1.50;99.90;;;;;;5208859;28;20697;-81
2022/04/02 02:20:30;;;;;;;51.25;23.05;;;1.50;99.90;;;;;;5210924;28;20576;-81
2022/04/02 02:23:03;;;;;;;39.22;18.60;;;1.50;99.90;;;;;;5212141;28;20037;-81
2022/04/02 02:25:37;;;;;;;39.38;19.25;;;1.50;99.90;;;;;;5225193;28;20516;-82
2022/04/02 02:28:09;;;;;;;43.08;21.35;;;1.50;99.90;;;;;;5219586;28;20056;-82
2022/04/02 02:30:42;;;;;;;45.38;22.48;;;1.50;99.90;;;;;;5213185;28;20052;-82
2022/04/02 02:36:07;;;;;;;42.60;20.45;;;1.50;99.90;;;;;;5201574;28;20063;-82
2022/04/02 02:38:49;;;;;;;38.85;20.67;;;1.60;99.90;;;;;;5203795;28;20053;-82
2022/04/02 02:41:28;;;;;;;37.13;19.70;;;1.60;99.90;;;;;;5196001;28;20048;-83
2022/04/02 02:44:05;;;;;;;39.38;20.63;;;1.60;99.90;;;;;;5191723;28;20075;-83
2022/04/02 02:46:46;;;;;;;37.83;20.55;;;1.60;99.90;;;;;;5184137;28;20124;-83
2022/04/02 02:49:26;;;;;;;45.15;21.38;;;1.60;99.90;;;;;;5198751;28;20052;-83
2022/04/02 02:52:02;;;;;;;44.05;21.00;;;1.60;99.90;;;;;;5203433;28;21314;-81
2022/04/02 02:54:35;;;;;;;38.80;20.20;;;1.60;99.90;;;;;;5207253;28;21216;-80
2022/04/02 02:57:09;;;;;;;40.17;20.00;;;1.60;99.90;;;;;;5194916;28;20048;-80
2022/04/02 02:59:41;;;;;;;35.47;18.90;;;1.70;99.90;;;;;;5196804;28;20048;-80
2022/04/02 03:02:17;;;;;;;35.72;19.45;;;1.70;99.90;;;;;;5182685;28;20102;-80
2022/04/02 03:04:56;;;;;;;37.00;19.75;;;1.70;99.90;;;;;;5195408;28;20056;-81
2022/04/02 03:07:41;;;;;;;34.63;19.40;;;1.70;99.90;;;;;;5215864;28;20041;-79
2022/04/02 03:10:18;;;;;;;35.95;19.35;;;1.70;99.90;;;;;;5185709;28;20049;-81
2022/04/02 03:12:53;;;;;;;34.30;19.63;;;1.80;99.90;;;;;;5220329;28;20045;-81
2022/04/02 03:15:26;;;;;;;33.55;18.27;;;1.80;99.90;;;;;;5186341;28;20068;-80
2022/04/02 03:18:04;;;;;;;;;;;1.80;99.90;;;;;;5191377;28;20068;-81
2022/04/02 03:20:37;;;;;;;36.35;19.15;;;1.80;99.90;;;;;;5214610;28;19935;-81
2022/04/02 03:23:11;;;;;;;36.60;19.90;;;1.80;99.90;;;;;;5190017;28;20063;-82
2022/04/02 03:25:44;;;;;;;35.90;18.73;;;1.90;99.90;;;;;;5202663;28;20037;-80
2022/04/02 03:28:18;;;;;;;34.33;18.60;;;1.90;99.90;;;;;;5204746;28;20604;-80
2022/04/02 03:30:51;;;;;;;36.08;19.10;;;1.90;99.90;;;;;;5189490;28;20037;-79
2022/04/02 03:33:23;;;;;;;36.00;19.07;;;2.00;99.90;;;;;;5196649;28;20371;-82
2022/04/02 03:35:59;;;;;;;34.25;18.70;;;2.00;99.90;;;;;;5184333;28;20037;-81
2022/04/02 03:38:33;;;;;;;32.53;18.42;;;2.00;99.90;;;;;;5191675;28;20058;-80
2022/04/02 03:41:13;;;;;;;41.90;20.67;;;2.00;99.90;;;;;;5180926;28;20059;-81
2022/04/02 03:43:47;;;;;;;37.97;19.98;;;2.00;99.90;;;;;;5200920;28;20044;-79
2022/04/02 03:49:17;;;;;;;31.77;17.73;;;2.10;99.90;;;;;;5206996;28;20052;-83
2022/04/02 03:51:49;;;;;;;42.88;19.85;;;2.10;99.90;;;;;;5188347;28;20068;-83
2022/04/02 03:54:25;;;;;;;37.22;20.00;;;2.10;99.90;;;;;;5207204;28;20455;-82
2022/04/02 03:57:06;;;;;;;41.70;21.48;;;2.00;99.90;;;;;;5177862;28;20044;-83
2022/04/02 03:59:40;;;;;;;36.63;20.45;;;1.90;99.90;;;;;;5174048;28;20619;-82
2022/04/02 04:02:15;;;;;;;38.22;21.52;;;1.80;99.90;;;;;;5187661;28;20052;-82
2022/04/02 04:04:48;;;;;;;40.58;20.58;;;1.80;99.90;;;;;;5173680;28;20053;-84
2022/04/02 04:07:21;;;;;;;42.13;22.25;;;1.80;99.90;;;;;;5195048;28;20407;-83
2022/04/02 04:09:54;;;;;;;40.13;22.58;;;1.80;99.90;;;;;;5207964;28;20534;-83
2022/04/02 04:12:27;;;;;;;40.30;21.73;;;1.70;99.90;;;;;;5169842;28;20052;-83
2022/04/02 04:14:59;;;;;;;39.10;21.40;;;1.70;99.90;;;;;;5189325;28;20488;-83
2022/04/02 04:17:32;;;;;;;46.15;23.45;;;1.60;99.90;;;;;;5169352;28;20045;-83
2022/04/02 04:20:05;;;;;;;44.20;22.77;;;1.50;99.90;;;;;;5206381;28;20049;-84
2022/04/02 04:22:38;;;;;;;44.03;22.30;;;1.50;99.90;;;;;;5183450;28;20045;-85
2022/04/02 04:25:14;;;;;;;39.78;22.60;;;1.40;99.90;;;;;;5182422;28;20394;-84
2022/04/02 04:27:50;;;;;;;43.20;21.95;;;1.40;99.90;;;;;;5180427;28;20411;-84
2022/04/02 04:30:23;;;;;;;41.58;21.17;;;1.40;99.90;;;;;;5183999;28;20045;-85
2022/04/02 04:32:57;;;;;;;38.17;21.02;;;1.30;99.90;;;;;;5204128;28;20052;-83
2022/04/02 04:35:35;;;;;;;45.85;22.45;;;1.30;99.90;;;;;;5191346;28;20063;-85
2022/04/02 04:38:08;;;;;;;49.85;24.92;;;1.20;99.90;;;;;;5189950;28;20068;-84
2022/04/02 04:40:40;;;;;;;51.05;24.92;;;1.20;99.90;;;;;;5187689;28;20499;-84
2022/04/02 04:43:13;;;;;;;46.17;23.95;;;1.30;99.90;;;;;;5194377;28;20048;-83
2022/04/02 04:45:49;;;;;;;47.42;23.95;;;1.20;99.90;;;;;;5206872;28;26451;-83
2022/04/02 04:48:24;;;;;;;48.60;25.63;;;1.10;99.90;;;;;;5185382;28;20048;-79
2022/04/02 04:51:01;;;;;;;47.22;23.05;;;1.20;99.90;;;;;;5185367;28;20289;-80
2022/04/02 04:53:36;;;;;;;43.08;23.40;;;1.10;99.90;;;;;;5194455;28;20232;-80
2022/04/02 04:56:10;;;;;;;46.65;24.33;;;1.10;99.90;;;;;;5192894;28;20049;-78
2022/04/02 04:58:45;;;;;;;45.63;23.70;;;1.00;99.90;;;;;;5185691;28;20071;-80
2022/04/02 05:01:17;;;;;;;42.95;23.40;;;1.10;99.90;;;;;;5203123;28;20053;-81
2022/04/02 05:03:50;;;;;;;42.55;23.98;;;1.00;99.90;;;;;;5207140;28;20036;-79
2022/04/02 05:06:25;;;;;;;45.75;24.85;;;1.00;99.90;;;;;;5205227;28;20052;-81
2022/04/02 05:09:00;;;;;;;43.83;22.27;;;1.00;99.90;;;;;;5219940;28;20415;-82
2022/04/02 05:11:39;;;;;;;48.55;24.90;;;0.90;99.90;;;;;;5221919;28;20060;-80
2022/04/02 05:14:14;;;;;;;41.28;22.05;;;1.00;99.90;;;;;;5225845;28;20100;-80
2022/04/02 05:16:52;;;;;;;41.13;23.02;;;0.90;99.90;;;;;;5187250;28;20502;-78
2022/04/02 05:19:27;;;;;;;43.35;22.30;;;0.90;99.90;;;;;;5213853;28;20041;-81
2022/04/02 05:22:01;;;;;;;46.45;22.58;;;0.90;99.90;;;;;;5209628;28;20036;-81
2022/04/02 05:24:37;;;;;;;40.65;20.70;;;0.90;99.90;;;;;;5205830;28;20044;-79
2022/04/02 05:27:09;;;;;;;48.47;23.90;;;0.80;99.90;;;;;;5206462;28;20053;-80
2022/04/02 05:29:43;;;;;;;46.72;22.48;;;0.80;99.90;;;;;;5206473;28;20063;-81
2022/04/02 05:32:16;;;;;;;42.87;22.13;;;0.80;99.90;;;;;;5215443;28;20378;-81
2022/04/02 05:34:48;;;;;;;41.15;22.48;;;0.80;99.90;;;;;;5189527;28;20048;-80
2022/04/02 05:37:21;;;;;;;45.85;21.88;;;0.80;99.90;;;;;;5194911;28;20045;-81
2022/04/02 05:39:54;;;;;;;42.88;22.08;;;0.80;99.90;;;;;;5221701;28;20072;-80
2022/04/02 05:42:27;;;;;;;45.80;22.02;;;0.80;99.90;;;;;;5185198;28;20072;-80
2022/04/02 05:44:59;;;;;;;43.35;21.48;;;0.90;99.90;;;;;;5171290;28;20060;-79
2022/04/02 05:47:46;;;;;;;46.97;21.50;;;0.90;99.90;;;;;;5201523;28;20404;-81
2022/04/02 05:50:20;;;;;;;44.40;21.15;;;0.90;99.90;;;;;;5187233;28;20060;-80
2022/04/02 05:53:08;;;;;;;46.40;22.35;;;0.80;99.90;;;;;;5226884;28;20060;-81
2022/04/02 05:55:42;;;;;;;45.30;22.47;;;0.80;99.90;;;;;;5197079;28;20064;-81
2022/04/02 05:58:15;;;;;;;48.50;23.65;;;0.80;99.90;;;;;;5208748;28;20060;-80
2022/04/02 06:00:49;;;;;;;43.70;20.65;;;0.90;99.90;;;;;;5193055;28;20060;-80
2022/04/02 06:03:22;;;;;;;47.80;21.55;;;0.90;99.90;;;;;;5208540;28;20052;-80
2022/04/02 06:05:55;;;;;;;45.42;21.90;;;0.80;99.90;;;;;;5215617;28;20071;-80
2022/04/02 06:08:27;;;;;;;40.97;20.85;;;0.80;99.90;;;;;;5223606;28;20045;-79
2022/04/02 06:11:01;;;;;;;41.35;21.30;;;0.80;99.90;;;;;;5222605;28;20052;-81
2022/04/02 06:13:34;;;;;;;42.35;20.60;;;0.80;99.90;;;;;;5204813;28;20049;-80
2022/04/02 06:16:06;;;;;;;47.70;22.45;;;0.90;99.90;;;;;;5227300;28;20051;-80
2022/04/02 06:18:39;;;;;;;43.20;21.05;;;0.90;99.90;;;;;;5228994;28;20056;-80
2022/04/02 06:21:11;;;;;;;45.78;22.42;;;0.90;99.90;;;;;;5221297;28;20056;-80
2022/04/02 06:23:44;;;;;;;44.40;22.23;;;0.90;99.90;;;;;;5199990;28;20044;-81
2022/04/02 06:26:16;;;;;;;41.83;21.63;;;0.90;99.90;;;;;;5207579;28;20393;-81
2022/04/02 06:28:49;;;;;;;45.47;21.38;;;0.90;99.90;;;;;;5224884;28;20055;-82
2022/04/02 06:31:21;;;;;;;47.80;21.90;;;0.90;99.90;;;;;;5215594;28;20749;-79
2022/04/02 06:33:54;;;;;;;44.38;20.58;;;1.00;99.90;;;;;;5206143;28;20063;-80
2022/04/02 06:36:27;;;;;;;50.97;21.83;;;0.90;99.90;;;;;;5193825;28;20056;-81
2022/04/02 06:39:00;;;;;;;44.97;21.10;;;0.90;99.90;;;;;;5179449;28;20055;-82
2022/04/02 06:41:32;;;;;;;50.65;22.88;;;0.90;99.90;;;;;;5223134;28;20295;-80
2022/04/02 06:44:08;;;;;;;43.80;22.45;;;0.90;99.90;;;;;;5223637;28;20041;-80
2022/04/02 06:46:41;;;;;;;46.90;23.75;;;1.00;99.90;;;;;;5212100;28;20057;-80
2022/04/02 06:49:14;;;;;;;48.08;24.05;;;0.90;99.90;;;;;;5198598;28;20037;-79
2022/04/02 06:51:46;;;;;;;42.63;22.67;;;1.00;99.90;;;;;;5212001;28;20044;-80
2022/04/02 06:54:19;;;;;;;47.22;23.70;;;1.00;99.90;;;;;;5197462;28;20529;-80
2022/04/02 06:56:55;;;;;;;50.00;24.08;;;1.00;99.90;;;;;;5193966;28;20045;-79
2022/04/02 06:59:28;;;;;;;51.13;24.20;;;1.00;99.90;;;;;;5192513;28;20155;-77
2022/04/02 07:02:05;;;;;;;44.13;21.65;;;1.00;99.90;;;;;;5220981;28;20043;-80
2022/04/02 07:04:38;;;;;;;50.25;24.00;;;1.00;99.90;;;;;;5174639;28;20550;-78
2022/04/02 07:07:11;;;;;;;52.57;23.77;;;1.00;99.90;;;;;;5210297;28;20052;-79
2022/04/02 07:09:43;;;;;;;49.53;23.27;;;1.00;99.90;;;;;;5218414;28;20040;-78
2022/04/02 07:12:15;;;;;;;64.30;27.30;;;1.00;99.90;;;;;;5221796;28;20052;-80
2022/04/02 07:14:48;;;;;;;52.22;24.10;;;1.10;99.90;;;;;;5188315;28;20052;-79
2022/04/02 07:17:20;;;;;;;55.33;26.33;;;1.10;99.90;;;;;;5216347;28;20492;-79
2022/04/02 07:19:55;;;;;;;50.47;24.30;;;1.10;99.90;;;;;;5198182;28;20049;-80
2022/04/02 07:22:28;;;;;;;56.05;24.73;;;1.10;99.90;;;;;;5215562;28;20041;-79
2022/04/02 07:25:01;;;;;;;50.85;24.38;;;1.10;99.90;;;;;;5186608;28;20048;-79
2022/04/02 07:27:38;;;;;;;49.03;24.83;;;1.20;99.90;;;;;;5217417;28;20059;-80
2022/04/02 07:30:11;;;;;;;48.60;24.05;;;1.30;99.90;;;;;;5159636;28;20493;-79
2022/04/02 07:32:44;;;;;;;53.80;24.08;;;1.20;99.90;;;;;;5214883;28;20512;-78
2022/04/02 07:35:17;;;;;;;44.65;23.60;;;1.30;99.90;;;;;;5202048;28;20648;-80
2022/04/02 07:37:59;;;;;;;49.58;23.40;;;1.30;99.90;;;;;;5195155;28;20040;-78
2022/04/02 07:41:00;;;;;;;48.03;23.48;;;1.40;99.90;;;;;;5168259;28;20060;-78
2022/04/02 07:44:08;;;;;;;52.53;23.20;;;1.40;99.90;;;;;;5218207;28;20052;-78
2022/04/02 07:46:43;;;;;;;45.28;22.63;;;1.40;99.90;;;;;;5216522;28;20307;-78
2022/04/02 07:49:23;;;;;;;49.08;23.80;;;1.40;99.90;;;;;;5184740;28;20053;-77
2022/04/02 07:51:56;;;;;;;44.67;23.30;;;1.40;99.90;;;;;;5204956;28;20052;-77
2022/04/02 07:54:34;;;;;;;;;;;1.40;99.90;;;;;;5198512;28;20048;-78
2022/04/02 07:57:08;;;;;;;45.28;20.88;;;1.40;99.90;;;;;;5156342;28;20720;-78
2022/04/02 08:00:00;;;;;;;52.28;20.92;;;1.40;99.90;;;;;;5175521;28;20048;-80
2022/04/02 08:02:39;;;;;;;50.88;22.80;;;1.40;99.90;;;;;;5186063;28;20052;-79
2022/04/02 08:05:14;;;;;;;49.10;20.88;;;1.50;99.90;;;;;;5194981;28;20451;-76
2022/04/02 08:07:54;;;;;;;51.63;22.88;;;1.50;99.90;;;;;;5178356;28;20512;-78
2022/04/02 08:10:35;;;;;;;41.65;20.45;;;1.50;99.90;;;;;;5200264;28;20392;-78
2022/04/02 08:13:08;;;;;;;47.50;20.60;;;1.50;99.90;;;;;;5201669;28;20040;-79
2022/04/02 08:15:44;;;;;;;43.83;20.05;;;1.50;99.90;;;;;;5203120;28;20150;-80
2022/04/02 08:18:20;;;;;;;40.03;21.05;;;1.60;99.90;;;;;;5183351;28;20358;-78
2022/04/02 08:20:55;;;;;;;45.05;21.50;;;1.70;99.90;;;;;;5192274;28;20529;-79
2022/04/02 08:23:33;;;;;;;44.85;21.48;;;1.70;99.90;;;;;;5198614;28;20515;-77
2022/04/02 08:26:35;;;;;;;41.25;20.25;;;1.80;99.90;;;;;;5194465;28;20588;-77
2022/04/02 08:29:20;;;;;;;45.88;21.95;;;1.90;99.90;;;;;;5192452;28;20459;-76
2022/04/02 08:32:30;;;;;;;46.58;21.75;;;1.90;99.90;;;;;;5210213;28;20049;-77
2022/04/02 08:35:05;;;;;;;44.75;22.27;;;2.10;99.90;;;;;;5217798;28;20535;-77
2022/04/02 08:37:37;;;;;;;46.78;21.30;;;2.10;99.90;;;;;;5212627;28;21427;-78
2022/04/02 08:40:41;;;;;;;42.70;20.00;;;2.10;99.90;;;;;;5202723;28;20036;-78
2022/04/02 08:43:17;;;;;;;41.83;19.92;;;2.10;99.90;;;;;;5217720;28;20044;-79
2022/04/02 08:46:28;;;;;;;47.72;21.52;;;2.00;99.90;;;;;;5203992;28;20046;-79
2022/04/02 08:49:23;;;;;;;48.65;20.63;;;2.00;99.90;;;;;;5203404;28;20527;-78
2022/04/02 08:52:14;;;;;;;42.10;20.48;;;2.00;99.90;;;;;;5221363;28;20075;-77
2022/04/02 08:55:18;;;;;;;45.05;20.08;;;1.90;99.90;;;;;;5189952;28;20067;-77
2022/04/02 08:58:21;;;;;;;39.75;19.63;;;2.10;99.90;;;;;;5201861;28;20045;-78
2022/04/02 09:01:11;;;;;;;46.55;20.52;;;2.30;99.90;;;;;;5189584;28;20361;-79
2022/04/02 09:04:23;;;;;;;39.28;20.08;;;2.30;99.90;;;;;;5207152;28;20040;-79
2022/04/02 09:07:20;;;;;;;32.35;17.90;;;2.30;99.90;;;;;;5210701;28;20049;-80
2022/04/02 09:10:15;;;;;;;40.25;18.40;;;2.20;99.90;;;;;;5213145;28;20535;-77
2022/04/02 09:13:09;;;;;;;41.17;18.80;;;2.20;99.90;;;;;;5221621;28;20519;-78
2022/04/02 09:16:07;;;;;;;46.20;20.17;;;2.20;99.90;;;;;;5198945;28;20040;-77
2022/04/02 09:18:59;;;;;;;43.40;17.85;;;2.30;99.90;;;;;;5224513;28;20399;-77
2022/04/02 09:21:57;;;;;;;42.92;18.70;;;2.40;99.90;;;;;;5224266;28;20393;-78
2022/04/02 09:25:12;;;;;;;37.92;18.02;;;2.40;99.90;;;;;;5206635;28;20063;-77
2022/04/02 09:28:15;;;;;;;35.60;18.27;;;2.50;99.90;;;;;;5204617;28;20063;-78
2022/04/02 09:31:21;;;;;;;36.55;19.55;;;2.50;99.90;;;;;;5204025;28;20045;-78
2022/04/02 09:34:23;;;;;;;38.15;18.70;;;2.30;99.90;;;;;;5219869;28;20044;-78
2022/04/02 09:37:15;;;;;;;38.28;19.73;;;2.20;99.90;;;;;;5194244;28;20064;-77
2022/04/02 09:40:11;;;;;;;43.10;19.27;;;2.30;99.90;;;;;;5206421;28;20045;-78
2022/04/02 09:42:46;;;;;;;36.05;18.58;;;2.40;99.90;;;;;;5209328;28;20114;-77
2022/04/02 09:45:22;;;;;;;33.80;19.13;;;2.40;99.90;;;;;;5204854;28;20033;-79
2022/04/02 09:47:57;;;;;;;40.03;19.23;;;2.30;99.90;;;;;;5214452;28;20355;-77
2022/04/02 09:50:30;;;;;;;44.45;18.80;;;2.20;99.90;;;;;;5224272;28;20279;-77
2022/04/02 09:53:23;;;;;;;36.85;17.88;;;2.20;99.90;;;;;;5222093;28;20432;-79
2022/04/02 09:56:17;;;;;;;38.47;18.35;;;2.20;99.90;;;;;;5208011;28;20071;-78
2022/04/02 09:59:02;;;;;;;40.53;19.25;;;2.20;99.90;;;;;;5204999;28;20060;-80
2022/04/02 10:01:41;;;;;;;35.88;18.00;;;2.20;99.90;;;;;;5224532;28;20045;-79
2022/04/02 10:04:26;;;;;;;33.67;18.52;;;2.30;99.90;;;;;;5210876;28;20063;-78
2022/04/02 10:07:03;;;;;;;42.17;19.75;;;2.30;99.90;;;;;;5200384;28;20179;-79
2022/04/02 10:09:38;;;;;;;35.50;19.17;;;2.30;99.90;;;;;;5231139;28;20500;-78
2022/04/02 10:12:14;;;;;;;37.72;19.48;;;2.50;99.90;;;;;;5226232;28;20057;-78
2022/04/02 10:14:52;;;;;;;36.60;19.33;;;2.70;99.90;;;;;;5224503;28;20497;-77
2022/04/02 10:17:28;;;;;;;32.28;17.23;;;2.60;99.90;;;;;;5223453;28;20060;-78
2022/04/02 10:20:01;;;;;;;36.20;19.25;;;2.50;99.90;;;;;;5218971;28;20044;-77
2022/04/02 10:22:42;;;;;;;33.75;19.52;;;2.40;99.90;;;;;;5231771;28;20412;-77
2022/04/02 10:25:15;;;;;;;37.67;19.90;;;2.40;99.90;;;;;;5225457;28;20620;-78
2022/04/02 10:27:48;;;;;;;36.25;19.25;;;2.50;99.90;;;;;;5199129;28;21439;-76
2022/04/02 10:30:24;;;;;;;38.05;19.33;;;2.60;99.90;;;;;;5225004;28;20044;-79
2022/04/02 10:36:03;;;;;;;37.00;20.23;;;2.60;99.90;;;;;;5224020;28;20060;-78
2022/04/02 10:38:47;;;;;;;41.63;19.98;;;2.50;99.90;;;;;;5204560;28;20045;-79
2022/04/02 10:41:24;;;;;;;38.35;20.88;;;2.60;99.90;;;;;;5214852;28;20055;-78
2022/04/02 10:44:08;;;;;;;40.63;19.50;;;2.60;99.90;;;;;;5220324;28;20048;-78
2022/04/02 10:46:44;;;;;;;37.42;19.63;;;2.60;99.90;;;;;;5220801;28;20048;-78
2022/04/02 10:49:24;;;;;;;36.55;18.70;;;2.50;99.90;;;;;;5220278;28;20447;-78
2022/04/02 10:52:00;;;;;;;36.85;20.63;;;2.60;99.90;;;;;;5188964;28;20056;-78
2022/04/02 10:54:34;;;;;;;37.03;19.10;;;2.70;99.90;;;;;;5221070;28;20255;-78
2022/04/02 10:57:07;;;;;;;38.20;19.80;;;2.80;99.90;;;;;;5222455;28;20049;-80
2022/04/02 10:59:46;;;;;;;35.30;19.17;;;2.80;99.90;;;;;;5216254;28;20059;-78
2022/04/02 11:02:23;;;;;;;38.30;20.83;;;2.80;99.90;;;;;;5209972;28;20063;-78
2022/04/02 11:05:03;;;;;;;33.85;18.65;;;2.70;99.90;;;;;;5214643;28;20047;-79
2022/04/02 11:07:44;;;;;;;35.90;20.75;;;2.70;99.90;;;;;;5205765;28;20408;-80
2022/04/02 11:10:18;;;;;;;39.08;19.88;;;2.70;99.90;;;;;;5202300;28;20373;-79
2022/04/02 11:13:00;;;;;;;40.25;20.85;;;2.50;99.90;;;;;;5198307;28;20045;-80
2022/04/02 11:15:40;;;;;;;36.45;19.67;;;2.50;99.90;;;;;;5206789;28;20416;-80
2022/04/02 11:18:17;;;;;;;37.65;19.65;;;2.60;99.90;;;;;;5208245;28;20048;-78
2022/04/02 11:20:53;;;;;;;33.20;18.50;;;2.60;99.90;;;;;;5201746;28;20055;-80
2022/04/02 11:23:46;;;;;;;42.58;20.38;;;2.60;99.90;;;;;;5206965;28;20052;-78
2022/04/02 11:26:20;;;;;;;39.40;19.63;;;2.70;99.90;;;;;;5204474;28;20048;-78
2022/04/02 11:28:55;;;;;;;37.30;19.92;;;2.70;99.90;;;;;;5219018;28;20052;-79
2022/04/02 11:31:29;;;;;;;36.50;20.17;;;2.80;99.90;;;;;;5203801;28;20052;-79
2022/04/02 11:34:07;;;;;;;;;;;2.80;99.90;;;;;;5219117;28;20055;-79
2022/04/02 11:36:46;;;;;;;36.38;20.08;;;2.70;99.90;;;;;;5187285;28;19924;-78
2022/04/02 11:39:31;;;;;;;37.58;20.25;;;2.60;99.90;;;;;;5200278;28;20048;-79
2022/04/02 11:42:07;;;;;;;39.13;21.30;;;2.70;99.90;;;;;;5213106;28;20072;-80
2022/04/02 11:44:49;;;;;;;34.65;19.77;;;2.80;99.90;;;;;;5214593;28;20056;-78
2022/04/02 11:47:29;;;;;;;34.88;18.88;;;2.90;99.90;;;;;;5202276;28;20053;-80
2022/04/02 11:50:11;;;;;;;33.58;19.83;;;3.00;99.90;;;;;;5215041;28;20045;-79
2022/04/02 11:52:51;;;;;;;34.88;18.35;;;2.90;99.90;;;;;;5196929;28;20119;-77
2022/04/02 11:55:26;;;;;;;31.98;19.27;;;2.90;99.90;;;;;;5183957;28;20098;-78
2022/04/02 11:58:05;;;;;;;35.72;20.35;;;2.90;99.90;;;;;;5210220;28;20407;-78
2022/04/02 12:00:40;;;;;;;36.78;18.67;;;3.00;99.90;;;;;;5211364;28;20033;-78
2022/04/02 12:03:24;;;;;;;41.13;20.20;;;2.90;99.90;;;;;;5216105;28;20363;-77
2022/04/02 12:06:09;;;;;;;36.00;19.25;;;2.80;99.90;;;;;;5205170;28;20518;-79
2022/04/02 12:08:43;;;;;;;41.22;21.73;;;2.90;99.90;;;;;;5208862;28;20493;-77
2022/04/02 12:11:24;;;;;;;34.13;20.27;;;2.80;99.90;;;;;;5222008;28;20048;-77
2022/04/02 12:13:56;;;;;;;37.35;20.63;;;2.90;99.90;;;;;;5201627;28;20040;-79
2022/04/02 12:16:38;;;;;;;33.25;20.13;;;3.00;99.90;;;;;;5226386;28;20060;-79
2022/04/02 12:19:12;;;;;;;39.58;21.33;;;3.20;99.90;;;;;;5220217;28;20407;-78
2022/04/02 12:21:44;;;;;;;29.33;19.00;;;3.30;99.90;;;;;;5208011;28;20048;-78
2022/04/02 12:24:18;;;;;;;32.17;18.00;;;3.10;99.90;;;;;;5226161;28;20705;-78
2022/04/02 12:26:50;;;;;;;31.10;19.35;;;3.10;99.90;;;;;;5215274;28;20515;-78
2022/04/02 12:29:23;;;;;;;31.80;17.60;;;3.00;99.90;;;;;;5228051;28;20053;-78
2022/04/02 12:31:56;;;;;;;25.35;16.27;;;3.00;99.90;;;;;;5200750;28;20806;-77
2022/04/02 12:34:30;;;;;;;26.92;17.58;;;3.00;99.90;;;;;;5209128;28;21800;-79
2022/04/02 12:37:03;;;;;;;32.42;19.13;;;3.10;99.90;;;;;;5224412;28;20048;-77
2022/04/02 12:39:38;;;;;;;34.17;17.90;;;3.20;99.90;;;;;;5180599;28;20051;-80
2022/04/02 12:42:11;;;;;;;26.98;16.13;;;3.30;99.90;;;;;;5178560;28;20427;-79
2022/04/02 12:44:43;;;;;;;31.05;18.92;;;3.30;99.90;;;;;;5189247;28;20053;-79
2022/04/02 12:47:17;;;;;;;27.52;17.42;;;3.30;99.90;;;;;;5220773;28;20055;-80
2022/04/02 12:49:49;;;;;;;27.08;16.70;;;3.20;99.90;;;;;;5225289;28;20436;-80
2022/04/02 12:52:22;;;;;;;27.63;17.25;;;3.10;99.90;;;;;;5223182;28;20076;-79
2022/04/02 12:54:57;;;;;;;33.80;18.30;;;2.90;99.90;;;;;;5193632;28;20581;-80
2022/04/02 12:57:31;;;;;;;32.72;18.05;;;2.80;99.90;;;;;;5227131;28;20055;-79
2022/04/02 13:00:04;;;;;;;28.92;17.98;;;2.70;99.90;;;;;;5208127;28;20044;-78
2022/04/02 13:02:43;;;;;;;29.73;19.35;;;2.50;99.90;;;;;;5210470;28;20044;-79
2022/04/02 13:05:24;;;;;;;28.10;17.95;;;2.50;99.90;;;;;;5225848;28;20045;-80
2022/04/02 13:08:04;;;;;;;27.17;17.05;;;2.40;99.90;;;;;;5221565;28;20136;-78
2022/04/02 13:10:43;;;;;;;24.20;15.65;;;2.30;99.90;;;;;;5204739;28;20055;-78
2022/04/02 13:13:17;;;;;;;28.38;17.35;;;2.30;99.90;;;;;;5220652;28;20048;-79
2022/04/02 13:15:54;;;;;;;24.83;16.52;;;2.30;99.90;;;;;;5210853;28;20045;-78
2022/04/02 13:21:24;;;;;;;23.92;15.05;;;2.40;99.90;;;;;;5203530;28;20049;-79
2022/04/02 13:24:35;;;;;;;24.88;15.52;;;2.50;99.90;;;;;;5206602;28;20056;-77
2022/04/02 13:27:30;;;;;;;26.23;16.20;;;2.70;99.90;;;;;;5193531;28;20589;-77
2022/04/02 13:30:17;;;;;;;28.60;16.42;;;2.90;99.90;;;;;;5205348;28;20119;-78
2022/04/02 13:33:27;;;;;;;32.05;17.38;;;2.80;99.90;;;;;;5221583;28;20404;-78
2022/04/02 13:36:23;;;;;;;27.95;18.15;;;2.60;99.90;;;;;;5202243;28;20052;-79
2022/04/02 13:38:59;;;;;;;27.33;17.65;;;2.50;99.90;;;;;;5207362;28;20049;-79
2022/04/02 13:41:35;;;;;;;26.23;17.75;;;2.40;99.90;;;;;;5212824;28;20048;-79
2022/04/02 13:44:11;;;;;;;29.23;19.05;;;2.30;99.90;;;;;;5186618;28;20052;-78